Time;durP1;ratioP1;P1;durP2;ratioP2;P2;SDS_P1;SDS_P2;PMS_P1;PMS_P2;Temp;Humidity;BMP_temperature;BMP_pressure;BME280_temperature;BME280_humidity;BME280_pressure;Samples;Min_cycle;Max_cycle;Signal;HPM_P1;HPM_P2
2022/09/24 00:00:28;;;;;;;;;;;15.40;99.90;;;;;;5032370;28;19910;-86
2022/09/24 00:02:53;;;;;;;;;;;15.40;99.90;;;;;;5014779;28;19936;-88
2022/09/24 00:05:19;;;;;;;;;;;15.30;99.90;;;;;;5014719;28;20070;-88
2022/09/24 00:07:44;;;;;;;;;;;15.30;99.90;;;;;;5032100;28;19910;-88
2022/09/24 00:10:10;;;;;;;;;;;15.30;99.90;;;;;;5014776;28;20283;-88
2022/09/24 00:12:36;;;;;;;;;;;15.20;99.90;;;;;;5014602;28;19916;-88
2022/09/24 00:15:02;;;;;;;;;;;15.20;99.90;;;;;;5014527;28;20016;-88
2022/09/24 00:17:27;;;;;;;;;;;15.10;99.90;;;;;;5014466;28;19915;-88
2022/09/24 00:19:53;;;;;;;;;;;15.10;99.90;;;;;;5014636;28;19913;-88
2022/09/24 00:22:18;;;;;;;;;;;15.10;99.90;;;;;;5014519;28;19916;-87
2022/09/24 00:27:28;;;;;;;;;;;15.10;99.90;;;;;;5032456;28;20335;-88
2022/09/24 00:29:53;;;;;;;;;;;15.10;99.90;;;;;;5017491;28;19909;-88
2022/09/24 00:32:19;;;;;;;;;;;15.10;99.90;;;;;;5018032;28;19975;-87
2022/09/24 00:34:44;;;;;;;;;;;15.20;99.90;;;;;;5018019;28;20004;-87
2022/09/24 00:37:10;;;;;;;;;;;15.20;99.90;;;;;;5017703;28;19932;-88
2022/09/24 00:39:35;;;;;;;;;;;15.20;99.90;;;;;;5017774;28;19944;-88
2022/09/24 00:42:01;;;;;;;;;;;15.30;99.90;;;;;;5017805;28;19916;-88
2022/09/24 00:44:41;;;;;;;;;;;15.30;99.90;;;;;;5035404;28;20323;-88
2022/09/24 00:47:19;;;;;;;;;;;15.30;99.90;;;;;;5017448;28;20284;-88
2022/09/24 00:49:46;;;;;;;;;;;15.40;99.90;;;;;;5017598;28;19916;-88
2022/09/24 00:52:12;;;;;;;;;;;15.40;99.90;;;;;;5017596;28;19935;-87
2022/09/24 00:54:37;;;;;;;;;;;15.40;99.90;;;;;;5017570;28;20364;-87
2022/09/24 00:57:03;;;;;;;;;;;15.40;99.90;;;;;;5017246;28;20008;-88
2022/09/24 00:59:29;;;;;;;;;;;15.40;99.90;;;;;;5017628;28;19909;-87
2022/09/24 01:01:56;;;;;;;;;;;15.50;99.90;;;;;;5017535;28;19910;-87
2022/09/24 01:04:22;;;;;;;;;;;15.50;99.90;;;;;;5017550;28;19913;-87
2022/09/24 01:06:48;;;;;;;;;;;15.50;99.90;;;;;;5017280;28;19913;-87
2022/09/24 01:09:14;;;;;;;;;;;15.50;99.90;;;;;;5019444;28;20383;-86
2022/09/24 01:12:02;;;;;;;;;;;15.50;99.90;;;;;;5021671;28;20368;-86
2022/09/24 01:15:00;;;;;;;;;;;15.50;99.90;;;;;;5021952;28;19909;-87
2022/09/24 01:17:31;;;;;;;;;;;15.40;99.90;;;;;;4980410;28;19941;-88
2022/09/24 01:20:16;;;;;;;;;;;15.50;99.90;;;;;;5017033;28;19999;-88
2022/09/24 01:22:50;;;;;;;;;;;15.50;99.90;;;;;;5016994;28;19909;-88
2022/09/24 01:25:16;;;;;;;;;;;15.50;99.90;;;;;;5034672;28;19909;-88
2022/09/24 01:28:02;;;;;;;;;;;15.40;99.90;;;;;;5034400;28;20099;-88
2022/09/24 01:30:31;;;;;;;;;;;15.40;99.90;;;;;;4967255;28;19917;-88
2022/09/24 01:33:02;;;;;;;;;;;15.50;99.90;;;;;;5016800;28;19909;-88
2022/09/24 01:35:30;;;;;;;;;;;15.50;99.90;;;;;;5016960;28;20300;-88
2022/09/24 01:37:58;;;;;;;;;;;15.40;99.90;;;;;;5016996;28;19913;-88
2022/09/24 01:40:25;;;;;;;;;;;15.40;99.90;;;;;;5016421;28;19915;-88
2022/09/24 01:42:52;;;;;;;;;;;15.50;99.90;;;;;;5016766;28;20415;-88
2022/09/24 01:45:17;;;;;;;;;;;15.40;99.90;;;;;;5016898;28;19909;-89
2022/09/24 01:47:44;;;;;;;;;;;15.40;99.90;;;;;;5016618;28;19913;-88
2022/09/24 01:50:12;;;;;;;;;;;15.40;99.90;;;;;;5034417;28;19913;-88
2022/09/24 01:52:44;;;;;;;;;;;15.40;99.90;;;;;;5016730;28;19909;-88
2022/09/24 01:55:12;;;;;;;;;;;15.50;99.90;;;;;;5016821;28;19916;-88
2022/09/24 01:57:41;;;;;;;;;;;15.50;99.90;;;;;;5016358;28;20020;-88
2022/09/24 02:00:10;;;;;;;;;;;15.50;99.90;;;;;;5016566;28;19909;-87
2022/09/24 02:02:39;;;;;;;;;;;15.50;99.90;;;;;;5016470;28;19996;-87
2022/09/24 02:05:14;;;;;;;;;;;15.50;99.90;;;;;;5016644;28;19916;-88
2022/09/24 02:07:43;;;;;;;;;;;15.50;99.90;;;;;;5034021;28;19915;-87
2022/09/24 02:10:16;;;;;;;;;;;15.50;99.90;;;;;;5016151;28;19916;-87
2022/09/24 02:12:43;;;;;;;;;;;15.50;99.90;;;;;;5016326;28;19959;-87
2022/09/24 02:15:10;;;;;;;;;;;15.50;99.90;;;;;;5016353;28;19912;-88
2022/09/24 02:17:37;;;;;;;;;;;15.50;99.90;;;;;;5016098;28;20269;-87
2022/09/24 02:20:04;;;;;;;;;;;15.60;99.90;;;;;;5016159;28;19916;-87
2022/09/24 02:22:31;;;;;;;;;;;15.60;99.90;;;;;;5016107;28;19909;-87
2022/09/24 02:24:57;;;;;;;;;;;15.50;99.90;;;;;;5016019;28;20376;-88
2022/09/24 02:27:25;;;;;;;;;;;15.50;99.90;;;;;;5015874;28;19913;-88
2022/09/24 02:29:50;;;;;;;;;;;15.50;99.90;;;;;;5016105;28;19979;-88
2022/09/24 02:32:18;;;;;;;;;;;15.50;99.90;;;;;;5016012;28;19909;-88
2022/09/24 02:34:47;;;;;;;;;;;15.50;99.90;;;;;;5015915;28;19909;-88
2022/09/24 02:37:13;;;;;;;;;;;15.50;99.90;;;;;;5033510;28;19913;-88
2022/09/24 02:39:40;;;;;;;;;;;15.40;99.90;;;;;;5015887;28;19909;-88
2022/09/24 02:42:06;;;;;;;;;;;15.40;99.90;;;;;;5015784;28;19913;-88
2022/09/24 02:44:32;;;;;;;;;;;15.40;99.90;;;;;;5033529;28;19949;-88
2022/09/24 02:46:58;;;;;;;;;;;15.40;99.90;;;;;;5015559;28;19964;-88
2022/09/24 02:49:23;;;;;;;;;;;15.30;99.90;;;;;;5015834;28;19909;-88
2022/09/24 02:51:49;;;;;;;;;;;15.30;99.90;;;;;;5014946;28;19909;-88
2022/09/24 02:54:14;;;;;;;;;;;15.30;99.90;;;;;;5015708;28;20012;-87
2022/09/24 02:56:40;;;;;;;;;;;15.30;99.90;;;;;;5015399;28;19916;-87
2022/09/24 02:59:05;;;;;;;;;;;15.30;99.90;;;;;;5015578;28;20307;-88
2022/09/24 03:01:32;;;;;;;;;;;15.30;99.90;;;;;;5015359;28;19909;-87
2022/09/24 03:03:57;;;;;;;;;;;15.30;99.90;;;;;;5032860;28;20351;-88
2022/09/24 03:06:26;;;;;;;;;;;15.30;99.90;;;;;;5015163;28;19940;-88
2022/09/24 03:08:54;;;;;;;;;;;15.30;99.90;;;;;;5033114;28;19909;-87
2022/09/24 03:11:23;;;;;;;;;;;15.30;99.90;;;;;;5033150;28;20365;-87
2022/09/24 03:13:48;;;;;;;;;;;15.30;99.90;;;;;;5015348;28;19909;-87
2022/09/24 03:16:14;;;;;;;;;;;15.30;99.90;;;;;;5014935;28;19909;-88
2022/09/24 03:18:40;;;;;;;;;;;15.30;99.90;;;;;;5015135;28;20450;-88
2022/09/24 03:21:07;;;;;;;;;;;15.30;99.90;;;;;;5015058;28;19916;-87
2022/09/24 03:23:33;;;;;;;;;;;15.30;99.90;;;;;;5014928;28;20392;-88
2022/09/24 03:25:59;;;;;;;;;;;15.30;99.90;;;;;;5014853;28;19909;-87
2022/09/24 03:28:25;;;;;;;;;;;15.30;99.90;;;;;;5015058;28;19916;-88
2022/09/24 03:30:59;;;;;;;;;;;15.30;99.90;;;;;;5014882;28;20415;-88
2022/09/24 03:33:32;;;;;;;;;;;15.30;99.90;;;;;;5015055;28;19952;-88
2022/09/24 03:35:59;;;;;;;;;;;15.30;99.90;;;;;;5032515;28;19959;-87
2022/09/24 03:38:24;;;;;;;;;;;15.30;99.90;;;;;;5014860;28;19909;-88
2022/09/24 03:40:50;;;;;;;;;;;15.30;99.90;;;;;;5014759;28;19959;-88
2022/09/24 03:43:22;;;;;;;;;;;15.30;99.90;;;;;;5014826;28;19996;-88
2022/09/24 03:45:48;;;;;;;;;;;15.20;99.90;;;;;;5014740;28;20590;-88
2022/09/24 03:48:14;;;;;;;;;;;15.20;99.90;;;;;;5032595;28;19920;-88
2022/09/24 03:50:39;;;;;;;;;;;15.20;99.90;;;;;;5014773;28;19913;-88
2022/09/24 03:53:05;;;;;;;;;;;15.20;99.90;;;;;;5014845;28;19916;-88
2022/09/24 03:55:30;;;;;;;;;;;15.20;99.90;;;;;;5014609;28;20372;-88
2022/09/24 03:57:56;;;;;;;;;;;15.30;99.90;;;;;;5014603;28;20372;-87
2022/09/24 04:00:22;;;;;;;;;;;15.40;99.90;;;;;;5014570;28;19928;-87
2022/09/24 04:02:48;;;;;;;;;;;15.30;99.90;;;;;;5016212;28;19995;-88
2022/09/24 04:05:14;;;;;;;;;;;15.30;99.90;;;;;;5036117;28;20568;-88
2022/09/24 04:07:41;;;;;;;;;;;15.30;99.90;;;;;;5035998;28;19910;-88
2022/09/24 04:10:07;;;;;;;;;;;15.30;99.90;;;;;;5018381;28;19916;-88
2022/09/24 04:12:33;;;;;;;;;;;15.30;99.90;;;;;;5018310;28;19971;-88
2022/09/24 04:14:59;;;;;;;;;;;15.30;99.90;;;;;;5018232;28;20372;-88
2022/09/24 04:17:27;;;;;;;;;;;15.20;99.90;;;;;;5018126;28;19975;-88
2022/09/24 04:19:53;;;;;;;;;;;15.20;99.90;;;;;;5035959;28;19921;-87
2022/09/24 04:22:19;;;;;;;;;;;15.10;99.90;;;;;;5018168;28;19909;-88
2022/09/24 04:24:44;;;;;;;;;;;15.00;99.90;;;;;;5018130;28;19913;-88
2022/09/24 04:27:10;;;;;;;;;;;15.00;99.90;;;;;;5018033;28;20364;-89
2022/09/24 04:29:36;;;;;;;;;;;15.10;99.90;;;;;;5017884;28;19909;-88
2022/09/24 04:32:02;;;;;;;;;;;15.10;99.90;;;;;;5018602;28;20307;-88
2022/09/24 04:34:27;;;;;;;;;;;15.10;99.90;;;;;;5018094;28;19916;-88
2022/09/24 04:36:52;;;;;;;;;;;15.00;99.90;;;;;;5017810;28;19913;-88
2022/09/24 04:39:21;;;;;;;;;;;15.00;99.90;;;;;;5035850;28;19913;-89
2022/09/24 04:41:46;;;;;;;;;;;15.00;99.90;;;;;;5017991;28;19909;-88
2022/09/24 04:44:14;;;;;;;;;;;15.00;99.90;;;;;;5017886;28;19916;-88
2022/09/24 04:46:39;;;;;;;;;;;15.00;99.90;;;;;;5017765;28;19915;-89
2022/09/24 04:49:05;;;;;;;;;;;15.00;99.90;;;;;;5017890;28;20013;-88
2022/09/24 04:51:34;;;;;;;;;;;15.00;99.90;;;;;;5035521;28;19909;-88
2022/09/24 04:54:01;;;;;;;;;;;15.00;99.90;;;;;;5017910;28;19913;-88
2022/09/24 04:56:27;;;;;;;;;;;15.00;99.90;;;;;;5017664;28;20292;-88
2022/09/24 04:58:53;;;;;;;;;;;15.00;99.90;;;;;;5017814;28;19913;-88
2022/09/24 05:01:19;;;;;;;;;;;15.00;99.90;;;;;;5017566;28;20030;-88
2022/09/24 05:03:45;;;;;;;;;;;15.00;99.90;;;;;;5035260;28;19913;-88
2022/09/24 05:06:10;;;;;;;;;;;15.00;99.90;;;;;;5017374;28;19909;-88
2022/09/24 05:08:36;;;;;;;;;;;15.00;99.90;;;;;;5017664;28;20377;-88
2022/09/24 05:11:01;;;;;;;;;;;15.00;99.90;;;;;;5017359;28;19916;-88
2022/09/24 05:13:27;;;;;;;;;;;15.00;99.90;;;;;;5034714;28;19909;-88
2022/09/24 05:15:53;;;;;;;;;;;14.90;99.90;;;;;;5016684;28;19913;-89
2022/09/24 05:18:18;;;;;;;;;;;14.90;99.90;;;;;;5017267;28;20411;-88
2022/09/24 05:20:44;;;;;;;;;;;14.90;99.90;;;;;;5017189;28;19909;-88
2022/09/24 05:23:09;;;;;;;;;;;14.90;99.90;;;;;;5034891;28;19913;-88
2022/09/24 05:27:07;;;;;;;;;;;14.80;99.90;;;;;;5034734;28;20377;-88
2022/09/24 05:28:20;;;;;;;;;;;14.70;99.90;;;;;;5034743;28;19909;-88
2022/09/24 05:30:46;;;;;;;;;;;14.70;99.90;;;;;;5017012;28;19924;-88
2022/09/24 05:33:12;;;;;;;;;;;14.70;99.90;;;;;;5017068;28;19913;-88
2022/09/24 05:35:37;;;;;;;;;;;14.70;99.90;;;;;;5016819;28;19913;-88
2022/09/24 05:38:03;;;;;;;;;;;14.60;99.90;;;;;;5016969;28;19959;-88
2022/09/24 05:40:46;;;;;;;;;;;14.70;99.90;;;;;;5016859;28;20286;-89
2022/09/24 05:43:12;;;;;;;;;;;14.70;99.90;;;;;;5034566;28;19913;-88
2022/09/24 05:45:38;;;;;;;;;;;14.60;99.90;;;;;;5016681;28;19917;-88
2022/09/24 05:48:04;;;;;;;;;;;14.70;99.90;;;;;;5016754;28;20307;-88
2022/09/24 05:50:33;;;;;;;;;;;14.60;99.90;;;;;;5034390;28;19985;-88
2022/09/24 05:53:00;;;;;;;;;;;14.70;99.90;;;;;;5016760;28;19910;-88
2022/09/24 05:55:25;;;;;;;;;;;14.60;99.90;;;;;;5016658;28;19959;-88
2022/09/24 05:57:51;;;;;;;;;;;14.60;99.90;;;;;;5034171;28;20356;-88
2022/09/24 06:00:16;;;;;;;;;;;14.70;99.90;;;;;;5016697;28;19909;-88
2022/09/24 06:02:49;;;;;;;;;;;14.70;99.90;;;;;;5016363;28;19913;-88
2022/09/24 06:05:14;;;;;;;;;;;14.70;99.90;;;;;;5016705;28;19943;-88
2022/09/24 06:07:40;;;;;;;;;;;14.70;99.90;;;;;;5016303;28;19909;-88
2022/09/24 06:10:06;;;;;;;;;;;14.80;99.90;;;;;;5016297;28;19909;-88
2022/09/24 06:12:33;;;;;;;;;;;14.80;99.90;;;;;;5016456;28;19910;-88
2022/09/24 06:15:00;;;;;;;;;;;14.80;99.90;;;;;;5016271;28;19909;-88
2022/09/24 06:17:26;;;;;;;;;;;14.80;99.90;;;;;;5016033;28;19909;-88
2022/09/24 06:19:51;;;;;;;;;;;14.90;99.90;;;;;;5016286;28;19916;-88
2022/09/24 06:22:16;;;;;;;;;;;14.90;99.90;;;;;;5016118;28;19909;-88
2022/09/24 06:24:42;;;;;;;;;;;14.90;99.90;;;;;;5033747;28;20383;-88
2022/09/24 06:27:07;;;;;;;;;;;14.90;99.90;;;;;;5015946;28;19913;-88
2022/09/24 06:29:33;;;;;;;;;;;15.00;99.90;;;;;;5016326;28;19971;-88
2022/09/24 06:32:00;;;;;;;;;;;15.10;99.90;;;;;;5033644;28;20372;-88
2022/09/24 06:34:26;;;;;;;;;;;15.10;99.90;;;;;;5015895;28;20012;-89
2022/09/24 06:36:55;;;;;;;;;;;15.10;99.90;;;;;;5015652;28;19944;-88
2022/09/24 06:39:22;;;;;;;;;;;15.20;99.90;;;;;;5015892;28;19924;-88
2022/09/24 06:41:49;;;;;;;;;;;15.30;99.90;;;;;;5015912;28;20347;-88
2022/09/24 06:44:16;;;;;;;;;;;15.30;99.90;;;;;;5015645;28;19920;-88
2022/09/24 06:46:41;;;;;;;;;;;15.40;99.90;;;;;;5015556;28;19909;-88
2022/09/24 06:49:07;;;;;;;;;;;15.40;99.90;;;;;;5015700;28;20313;-88
2022/09/24 06:51:32;;;;;;;;;;;15.40;99.90;;;;;;5033286;28;20356;-88
2022/09/24 06:53:58;;;;;;;;;;;15.40;99.90;;;;;;5015747;28;19909;-88
2022/09/24 06:56:25;;;;;;;;;;;15.40;99.90;;;;;;5014848;28;21568;-88
2022/09/24 06:58:50;;;;;;;;;;;15.40;99.90;;;;;;5015593;28;19917;-88
2022/09/24 07:01:16;;;;;;;;;;;15.40;99.90;;;;;;5015313;28;19915;-88
2022/09/24 07:03:41;;;;;;;;;;;15.30;99.90;;;;;;5033123;28;20328;-88
2022/09/24 07:06:07;;;;;;;;;;;15.40;99.90;;;;;;5032829;28;19909;-89
2022/09/24 07:08:32;;;;;;;;;;;15.40;99.90;;;;;;5015483;28;20023;-89
2022/09/24 07:10:59;;;;;;;;;;;15.50;99.90;;;;;;5015373;28;20356;-88
2022/09/24 07:13:24;;;;;;;;;;;15.50;99.90;;;;;;5015328;28;19997;-88
2022/09/24 07:15:51;;;;;;;;;;;15.50;99.90;;;;;;5015043;28;19944;-88
2022/09/24 07:18:17;;;;;;;;;;;15.60;99.90;;;;;;5015417;28;20387;-88
2022/09/24 07:20:42;;;;;;;;;;;15.70;99.90;;;;;;5032893;28;19913;-87
2022/09/24 07:23:08;;;;;;;;;;;15.70;99.90;;;;;;5015241;28;20381;-88
2022/09/24 07:25:37;;;;;;;;;;;15.70;99.90;;;;;;5015552;28;19917;-89
2022/09/24 07:28:10;;;;;;;;;;;15.70;99.90;;;;;;5015258;28;19975;-88
2022/09/24 07:30:36;;;;;;;;;;;15.80;99.90;;;;;;5015051;28;19917;-88
2022/09/24 07:33:02;;;;;;;;;;;15.90;99.90;;;;;;5033198;28;20118;-88
2022/09/24 07:35:28;;;;;;;;;;;15.90;99.90;;;;;;5015240;28;20284;-88
2022/09/24 07:38:00;;;;;;;;;;;16.00;99.90;;;;;;5034709;28;19909;-88
2022/09/24 07:40:26;;;;;;;;;;;16.10;99.90;;;;;;5018992;28;20261;-88
2022/09/24 07:42:54;;;;;;;;;;;16.20;99.90;;;;;;5019076;28;19913;-88
2022/09/24 07:45:20;;;;;;;;;;;16.30;99.90;;;;;;5019160;28;20004;-87
2022/09/24 07:47:45;;;;;;;;;;;16.40;99.90;;;;;;5036613;28;20016;-88
2022/09/24 07:50:12;;;;;;;;;;;16.60;99.90;;;;;;5019034;28;19913;-88
2022/09/24 07:52:38;;;;;;;;;;;16.60;99.90;;;;;;5036714;28;19955;-88
2022/09/24 07:55:03;;;;;;;;;;;16.70;99.90;;;;;;5018948;28;19913;-88
2022/09/24 07:57:29;;;;;;;;;;;16.80;99.90;;;;;;5018743;28;20364;-88
2022/09/24 07:59:54;;;;;;;;;;;16.80;99.90;;;;;;5036484;28;19909;-88
2022/09/24 08:02:20;;;;;;;;;;;16.90;99.90;;;;;;5018761;28;19909;-88
2022/09/24 08:04:45;;;;;;;;;;;17.00;99.90;;;;;;5018455;28;20257;-88
2022/09/24 08:07:11;;;;;;;;;;;17.00;99.90;;;;;;5018435;28;19909;-88
2022/09/24 08:09:37;;;;;;;;;;;17.00;99.90;;;;;;5036401;28;19916;-88
2022/09/24 08:12:03;;;;;;;;;;;17.00;99.90;;;;;;5018617;28;19909;-88
2022/09/24 08:14:29;;;;;;;;;;;17.00;99.90;;;;;;5018538;28;19916;-87
2022/09/24 08:16:54;;;;;;;;;;;17.00;99.90;;;;;;5035910;28;19955;-88
2022/09/24 08:19:20;;;;;;;;;;;17.00;99.90;;;;;;5018534;28;19909;-88
2022/09/24 08:21:47;;;;;;;;;;;16.90;99.90;;;;;;5018358;28;19960;-88
2022/09/24 08:24:13;;;;;;;;;;;16.90;99.90;;;;;;5018236;28;19963;-87
2022/09/24 08:26:39;;;;;;;;;;;16.80;99.90;;;;;;5018545;28;20534;-88
2022/09/24 08:29:04;;;;;;;;;;;16.70;99.90;;;;;;5018401;28;19948;-87
2022/09/24 08:31:30;;;;;;;;;;;16.60;99.90;;;;;;5018117;28;20392;-88
2022/09/24 08:33:56;;;;;;;;;;;16.50;99.90;;;;;;5018295;28;19967;-88
2022/09/24 08:36:21;;;;;;;;;;;16.40;99.90;;;;;;5018363;28;19909;-88
2022/09/24 08:38:47;;;;;;;;;;;16.30;99.90;;;;;;5018084;28;20288;-88
2022/09/24 08:41:12;;;;;;;;;;;16.30;99.90;;;;;;5017920;28;19913;-88
2022/09/24 08:43:44;;;;;;;;;;;16.20;99.90;;;;;;5018101;28;19913;-88
2022/09/24 08:48:58;;;;;;;;;;;16.20;99.90;;;;;;5033580;28;20430;-89
2022/09/24 08:51:25;;;;;;;;;;;16.20;99.90;;;;;;5015936;28;20397;-87
2022/09/24 08:53:56;;;;;;;;;;;16.20;99.90;;;;;;5019130;28;19909;-86
2022/09/24 08:56:26;;;;;;;;;;;16.30;99.90;;;;;;5020668;28;19909;-87
2022/09/24 08:58:55;;;;;;;;;;;16.30;99.90;;;;;;5019509;28;20051;-87
2022/09/24 09:01:39;;;;;;;;;;;16.40;99.90;;;;;;5037595;28;19949;-87
2022/09/24 09:04:17;;;;;;;;;;;16.50;99.90;;;;;;5018288;28;19971;-87
2022/09/24 09:07:08;;;;;;;;;;;16.70;99.90;;;;;;5018683;28;19910;-87
2022/09/24 09:09:42;;;;;;;;;;;16.90;99.90;;;;;;5017960;28;19916;-85
2022/09/24 09:12:18;;;;;;;;;;;17.20;99.90;;;;;;5037077;28;19920;-85
2022/09/24 09:14:56;;;;;;;;;;;17.40;99.90;;;;;;5016552;28;19948;-88
2022/09/24 09:17:25;;;;;;;;;;;17.60;99.90;;;;;;5015967;28;20423;-88
2022/09/24 09:19:57;;;;;;;;;;;17.70;99.90;;;;;;5016842;28;19939;-87
2022/09/24 09:22:26;;;;;;;;;;;17.70;99.90;;;;;;5011935;28;19913;-88
2022/09/24 09:24:54;;;;;;;;;;;17.80;99.90;;;;;;5012801;28;19932;-88
2022/09/24 09:27:19;;;;;;;;;;;17.80;99.90;;;;;;5013915;28;19956;-87
2022/09/24 09:34:43;;;;;;;;;;;18.00;99.90;;;;;;4994318;28;20517;-87
2022/09/24 09:40:27;;;;;;;;;;;17.90;99.90;;;;;;4995478;28;19917;-88
2022/09/24 09:43:02;;;;;;;;;;;18.00;99.90;;;;;;4995314;28;19909;-88
2022/09/24 09:45:52;;;;;;;;;;;18.20;99.90;;;;;;4977598;28;19914;-88
2022/09/24 09:48:21;;;;;;;;;;;18.30;99.90;;;;;;4996069;28;19945;-86
2022/09/24 09:50:50;;;;;;;;;;;18.30;99.90;;;;;;5059642;23;19925;-87
2022/09/24 09:53:23;;;;;;;;;;;18.50;99.90;;;;;;5035204;28;19972;-88
2022/09/24 09:56:00;;;;;;;;;;;18.70;99.90;;;;;;5033723;28;19910;-87
2022/09/24 09:58:31;;;;;;;;;;;18.90;99.90;;;;;;5034586;28;19916;-87
2022/09/24 10:01:06;;;;;;;;;;;19.10;99.90;;;;;;5033142;28;20284;-88
2022/09/24 10:03:50;;;;;;;;;;;19.30;99.90;;;;;;5035038;28;20300;-87
2022/09/24 10:12:44;;;;;;;;;;;19.70;99.90;;;;;;4992862;28;20406;-89
2022/09/24 10:15:48;;;;;;;;;;;19.70;99.90;;;;;;5028593;28;19960;-88
2022/09/24 10:24:31;;;;;;;;;;;19.80;99.90;;;;;;5033893;28;19982;-88
2022/09/24 10:27:00;;;;;;;;;;;19.80;99.90;;;;;;5032583;28;19960;-88
2022/09/24 10:34:55;;;;;;;;;;;19.80;99.90;;;;;;5099331;22;20196;-86
2022/09/24 10:37:21;;;;;;;;;;;19.90;99.90;;;;;;5032889;28;20000;-90
2022/09/24 10:39:55;;;;;;;;;;;20.00;99.90;;;;;;5032432;28;19956;-88
2022/09/24 10:42:25;;;;;;;;;;;20.00;99.90;;;;;;5032167;28;19915;-89
2022/09/24 10:44:52;;;;;;;;;;;20.10;99.90;;;;;;5032073;28;19917;-89
2022/09/24 10:47:25;;;;;;;;;;;20.20;99.90;;;;;;5031869;28;19909;-88
2022/09/24 10:50:00;;;;;;;;;;;20.30;99.90;;;;;;5032762;28;19959;-86
2022/09/24 10:52:44;;;;;;;;;;;20.50;99.90;;;;;;5033441;28;20607;-87
2022/09/24 10:58:32;;;;;;;;;;;20.50;99.90;;;;;;5033576;28;19916;-87
2022/09/24 11:01:08;;;;;;;;;;;20.50;99.90;;;;;;5031927;28;19944;-88
2022/09/24 11:03:52;;;;;;;;;;;20.30;99.90;;;;;;5031903;28;20257;-88
2022/09/24 11:06:24;;;;;;;;;;;20.20;99.90;;;;;;5032044;28;19996;-85
2022/09/24 11:09:01;;;;;;;;;;;20.10;99.90;;;;;;5033520;28;19913;-85
2022/09/24 11:11:44;;;;;;;;;;;20.00;99.90;;;;;;5035042;28;20434;-86
2022/09/24 11:14:45;;;;;;;;;;;20.00;99.90;;;;;;5033372;28;20328;-86
2022/09/24 11:17:19;;;;;;;;;;;19.90;99.90;;;;;;4976412;28;19917;-85
2022/09/24 11:19:51;;;;;;;;;;;19.90;99.90;;;;;;5024514;28;19909;-85
2022/09/24 11:22:26;;;;;;;;;;;19.80;99.90;;;;;;5035142;28;19909;-84
2022/09/24 11:25:07;;;;;;;;;;;19.70;99.90;;;;;;5034652;28;19920;-85
2022/09/24 11:27:35;;;;;;;;;;;19.70;99.90;;;;;;5032483;28;19909;-86
2022/09/24 11:30:15;;;;;;;;;;;19.60;99.90;;;;;;5032955;28;20364;-86
2022/09/24 11:32:52;;;;;;;;;;;19.50;99.90;;;;;;5032229;28;19909;-85
2022/09/24 11:35:42;;;;;;;;;;;19.50;99.90;;;;;;5034160;28;20008;-87
2022/09/24 11:38:09;;;;;;;;;;;19.30;99.90;;;;;;5032119;28;19959;-86
2022/09/24 11:40:56;;;;;;;;;;;19.40;99.90;;;;;;5033895;28;19940;-87
2022/09/24 11:43:25;;;;;;;;;;;19.40;99.90;;;;;;5032790;28;20073;-85
2022/09/24 11:46:02;;;;;;;;;;;19.50;99.90;;;;;;5033381;28;19936;-86
2022/09/24 11:48:40;;;;;;;;;;;19.60;99.90;;;;;;5032081;28;19935;-87
2022/09/24 11:51:13;;;;;;;;;;;19.70;99.90;;;;;;5032376;28;19921;-85
2022/09/24 11:53:42;;;;;;;;;;;19.90;99.90;;;;;;5032342;28;19919;-86
2022/09/24 11:56:12;;;;;;;;;;;20.00;99.90;;;;;;5032137;28;20400;-86
2022/09/24 11:58:42;;;;;;;;;;;20.10;99.90;;;;;;5028696;28;19948;-87
2022/09/24 12:01:23;;;;;;;;;;;20.30;99.90;;;;;;5013089;28;19914;-87
2022/09/24 12:03:57;;;;;;;;;;;20.30;99.90;;;;;;5013691;28;20016;-86
2022/09/24 12:06:35;;;;;;;;;;;20.40;99.90;;;;;;5031220;28;19924;-85
2022/09/24 12:09:15;;;;;;;;;;;20.50;99.90;;;;;;5031952;28;19909;-88
2022/09/24 12:11:44;;;;;;;;;;;20.50;99.90;;;;;;5031115;28;19909;-87
2022/09/24 12:14:30;;;;;;;;;;;20.70;99.90;;;;;;5018756;28;20292;-87
2022/09/24 12:17:00;;;;;;;;;;;20.70;99.90;;;;;;5011636;28;19910;-87
2022/09/24 12:19:44;;;;;;;;;;;20.80;99.90;;;;;;5012055;28;20335;-87
2022/09/24 12:22:10;;;;;;;;;;;20.80;99.90;;;;;;5012615;28;19914;-86
2022/09/24 12:24:45;;;;;;;;;;;20.80;99.90;;;;;;5014752;28;19914;-87
2022/09/24 12:27:12;;;;;;;;;;;20.70;99.90;;;;;;5014621;28;19909;-87
2022/09/24 12:32:56;;;;;;;;;;;20.70;99.90;;;;;;5016577;28;20347;-86
2022/09/24 12:35:22;;;;;;;;;;;20.60;99.90;;;;;;5015987;28;19929;-89
2022/09/24 12:37:50;;;;;;;;;;;20.60;99.90;;;;;;5015776;28;19910;-88
2022/09/24 12:40:34;;;;;;;;;;;20.50;99.90;;;;;;5032647;28;19963;-90
2022/09/24 12:43:01;;;;;;;;;;;20.40;99.90;;;;;;5034592;28;19955;-89
2022/09/24 12:45:27;;;;;;;;;;;20.30;99.90;;;;;;5034592;28;19964;-89
2022/09/24 12:48:13;;;;;;;;;;;20.30;99.90;;;;;;5034288;28;20384;-91
2022/09/24 12:50:54;;;;;;;;;;;20.20;99.90;;;;;;5025522;28;19948;-90
2022/09/24 12:53:23;;;;;;;;;;;20.20;99.90;;;;;;5029913;28;19909;-89
2022/09/24 12:55:49;;;;;;;;;;;20.10;99.90;;;;;;5020900;28;19955;-90
2022/09/24 12:58:33;;;;;;;;;;;20.10;99.90;;;;;;5014763;28;19948;-90
2022/09/24 13:01:05;;;;;;;;;;;20.10;99.90;;;;;;5014492;28;20017;-88
2022/09/24 13:03:32;;;;;;;;;;;20.10;99.90;;;;;;5014570;28;19913;-91
2022/09/24 13:05:59;;;;;;;;;;;20.10;99.90;;;;;;4996927;28;20563;-88
2022/09/24 13:08:44;;;;;;;;;;;20.10;99.90;;;;;;4996145;28;19910;-85
2022/09/24 13:11:28;;;;;;;;;;;20.00;99.90;;;;;;4994854;28;19909;-84
2022/09/24 13:13:58;;;;;;;;;;;20.00;99.90;;;;;;4996461;28;19929;-85
2022/09/24 13:16:24;;;;;;;;;;;20.00;99.90;;;;;;4996627;28;20266;-85
2022/09/24 13:18:53;;;;;;;;;;;19.90;99.90;;;;;;4996371;28;19918;-85
2022/09/24 13:21:21;;;;;;;;;;;19.90;99.90;;;;;;4994472;28;20278;-85
2022/09/24 13:23:47;;;;;;;;;;;19.90;99.90;;;;;;4994395;28;19920;-86
2022/09/24 13:26:19;;;;;;;;;;;19.80;99.90;;;;;;4994186;28;19917;-85
2022/09/24 13:28:49;;;;;;;;;;;19.70;99.90;;;;;;4995788;28;20691;-86
2022/09/24 13:31:25;;;;;;;;;;;19.70;99.90;;;;;;4995301;28;19909;-86
2022/09/24 13:33:52;;;;;;;;;;;19.70;99.90;;;;;;4994670;28;19956;-84
2022/09/24 13:36:21;;;;;;;;;;;19.70;99.90;;;;;;4994216;28;19913;-84
2022/09/24 13:38:52;;;;;;;;;;;19.70;99.90;;;;;;4997791;28;20325;-84
2022/09/24 13:41:22;;;;;;;;;;;19.70;99.90;;;;;;4996408;28;19910;-83
2022/09/24 13:43:50;;;;;;;;;;;19.80;99.90;;;;;;4996159;28;20017;-83
2022/09/24 13:46:17;;;;;;;;;;;19.90;99.90;;;;;;4994377;28;19917;-84
2022/09/24 13:48:53;;;;;;;;;;;20.00;99.90;;;;;;4995441;28;19953;-83
2022/09/24 13:51:22;;;;;;;;;;;20.00;99.90;;;;;;4994996;28;19918;-85
2022/09/24 13:53:51;;;;;;;;;;;20.10;99.90;;;;;;4994217;28;19917;-83
2022/09/24 13:56:18;;;;;;;;;;;20.20;99.90;;;;;;4994380;28;19932;-84
2022/09/24 13:58:43;;;;;;;;;;;20.30;99.90;;;;;;4993886;28;19909;-84
2022/09/24 14:01:09;;;;;;;;;;;20.40;99.90;;;;;;4994742;28;20333;-84
2022/09/24 14:03:35;;;;;;;;;;;20.40;99.90;;;;;;4993694;28;19914;-84
2022/09/24 14:06:01;;;;;;;;;;;20.40;99.90;;;;;;4994437;28;19948;-86
2022/09/24 14:08:28;;;;;;;;;;;20.40;99.90;;;;;;4993415;28;19910;-86
2022/09/24 14:11:06;;;;;;;;;;;20.40;99.90;;;;;;4994321;28;19910;-85
2022/09/24 14:13:36;;;;;;;;;;;20.30;99.90;;;;;;4993688;28;20013;-85
2022/09/24 14:16:09;;;;;;;;;;;20.30;99.90;;;;;;4992847;28;19933;-85
2022/09/24 14:18:35;;;;;;;;;;;20.30;99.90;;;;;;4995157;28;19917;-85
2022/09/24 14:21:05;;;;;;;;;;;20.30;99.90;;;;;;4992964;28;19914;-85
2022/09/24 14:23:34;;;;;;;;;;;20.20;99.90;;;;;;4994396;28;19914;-85
2022/09/24 14:26:00;;;;;;;;;;;20.10;99.90;;;;;;4992591;28;19910;-85
2022/09/24 14:28:28;;;;;;;;;;;20.00;99.90;;;;;;4995320;28;19917;-84
2022/09/24 14:30:54;;;;;;;;;;;20.00;99.90;;;;;;4994068;28;19910;-85
2022/09/24 14:33:24;;;;;;;;;;;20.00;99.90;;;;;;4993983;28;19918;-85
2022/09/24 14:35:50;;;;;;;;;;;20.10;99.90;;;;;;4994527;28;19909;-85
2022/09/24 14:38:19;;;;;;;;;;;20.20;99.90;;;;;;4992986;28;19910;-85
2022/09/24 14:40:49;;;;;;;;;;;20.30;99.90;;;;;;4992795;28;19909;-85
2022/09/24 14:43:22;;;;;;;;;;;20.30;99.90;;;;;;4992828;28;19934;-86
2022/09/24 14:45:49;;;;;;;;;;;20.30;99.90;;;;;;4992362;28;20444;-85
2022/09/24 14:48:14;;;;;;;;;;;20.30;99.90;;;;;;4992112;28;19936;-85
2022/09/24 14:50:40;;;;;;;;;;;20.40;99.90;;;;;;4992551;28;19910;-85
2022/09/24 14:53:11;;;;;;;;;;;20.40;99.90;;;;;;4993093;28;20427;-85
2022/09/24 14:55:41;;;;;;;;;;;20.40;99.90;;;;;;4992156;28;19989;-85
2022/09/24 14:58:21;;;;;;;;;;;20.30;99.90;;;;;;4992643;28;19914;-85
2022/09/24 15:00:48;;;;;;;;;;;20.40;99.90;;;;;;4993761;28;19910;-85
2022/09/24 15:03:15;;;;;;;;;;;20.40;99.90;;;;;;4993652;28;19918;-85
2022/09/24 15:05:42;;;;;;;;;;;20.30;99.90;;;;;;4992081;28;19964;-85